| Record Date MM/DD/YYYY | Record Time HH:MM:SS | Record Julian Date NNN day of the year | Air Temperature Max (Degrees Fahrenheit F) | Time Max Air Temperature HH:MM:SS This is the time of max air temp for the prior hour interval listed for record [Time]. | Air Temperature Min (Degrees Fahrenheit F) | Time Min Air Temperature HH:MM:SS This is the time of min air temp for the prior hour interval listed for record [Time]. | Air Temperature Observed (Degrees Fahrenheit F) This is an instantaneous reading at the record [Time]. | Relative Humidity Max (Percent) | Time Max Relative Humidity HH:MM:SS This is the time of max relative humidity for the prior hour interval listed for record [Time]. | Relative Humidity Min (Percent) | Time Min Relative Humidity HH:MM:SS This is the time of min relative humidity for the prior hour interval listed for record [Time]. | Relative Humidity Observed (Percent) This is an instantaneous reading at the record [Time]. | Precipitation (Inches n.nn) rain fall that occurred during the prior hour interval listed for record [Time]. | Wind Speed (Miles Per Hour) Resultant Speed that occurred during the prior hour interval listed for record [Time]. | Wind Direction (Degrees) Resultant Direction that occurred during the prior hour interval listed for record [Time]. | Solar Radiation (Langley's) that occurred during the prior hour interval listed for record [Time]. | Soil Temperature Average at 2 inch depth (Degrees Fahrenheit F) that occurred during the prior hour interval listed for record [Time]. | Soil Temperature Observed at 2 inch depth (Degrees Fahrenheit F) This is an instantaneous reading at the record [Time]. | Soil Temperature Average at 4 inch depth (Degrees Fahrenheit F) that occurred during the prior hour interval listed for record [Time]. | Soil Temperature Observed at 4 inch depth (Degrees Fahrenheit F) This is an instantaneous reading at the record [Time]. |
|---|---|---|---|---|---|---|---|---|---|---|---|---|---|---|---|---|---|---|---|---|
| 08/24/2026 | 0:00:00 | 236 | 72 | 23:00:01 | 70 | 23:43:01 | 71 | 95 | 23:50:02 | 92 | 23:00:01 | 94.7 | 0 | |||||||
| 08/24/2026 | 1:00:00 | 236 | 71 | 0:03:02 | 70 | 1:00:00 | 70 | 96 | 0:46:04 | 94 | 0:05:05 | 95.6 | 0 | |||||||
| 08/24/2026 | 2:00:00 | 236 | 72 | 1:44:02 | 70 | 1:05:00 | 71 | 96 | 1:03:03 | 93 | 1:43:03 | 94.1 | 0 | |||||||
| 08/24/2026 | 3:00:00 | 236 | 72 | 2:58:04 | 71 | 2:01:01 | 72 | 96 | 2:29:02 | 93 | 3:00:00 | 92.7 | 0 | |||||||
| 08/24/2026 | 4:00:00 | 236 | 72 | 3:46:04 | 72 | 3:00:01 | 72 | 94 | 3:22:02 | 91 | 3:46:01 | 92.8 | 0 | |||||||
| 08/24/2026 | 5:00:00 | 236 | 72 | 4:14:01 | 71 | 4:51:05 | 72 | 96 | 4:26:05 | 90 | 5:00:00 | 90 | 0 | |||||||
| 08/24/2026 | 6:00:00 | 236 | 73 | 5:58:04 | 72 | 5:01:00 | 73 | 90 | 5:01:03 | 85 | 5:38:04 | 88 | 0 | |||||||
| 08/24/2026 | 7:00:00 | 236 | 74 | 6:59:05 | 73 | 6:00:02 | 74 | 91 | 6:17:01 | 81 | 6:57:02 | 83.8 | 0 | |||||||
| 08/24/2026 | 8:00:00 | 236 | 80 | 7:32:02 | 74 | 7:02:00 | 79 | 84 | 7:00:04 | 64 | 7:35:03 | 68.14 | 0 | |||||||
| 08/24/2026 | 9:00:00 | 236 | 82 | 8:54:00 | 79 | 8:00:01 | 81 | 71 | 8:10:01 | 63 | 8:48:04 | 65.47 | 0 | |||||||
| 08/24/2026 | 10:00:00 | 236 | 87 | 9:49:00 | 81 | 9:02:04 | 86 | 66 | 9:00:05 | 53 | 9:50:01 | 52.99 | 0 | |||||||
| 08/24/2026 | 11:00:00 | 236 | 91 | 10:55:01 | 86 | 10:00:01 | 91 | 57 | 10:09:01 | 40 | 10:55:02 | 41.47 | 0 | |||||||
| 08/24/2026 | 12:00:00 | 236 | 93 | 11:59:05 | 90 | 11:23:01 | 93 | 45 | 11:20:02 | 39 | 11:52:05 | 39.86 | 0 | |||||||
| 08/24/2026 | 13:00:00 | 236 | 94 | 12:40:00 | 92 | 12:22:03 | 93 | 41 | 12:00:04 | 34 | 12:35:00 | 35.4 | 0 | |||||||
| 08/24/2026 | 14:00:00 | 236 | 95 | 13:18:01 | 93 | 13:40:01 | 94 | 39 | 13:52:00 | 34 | 13:18:05 | 37.24 | 0 | |||||||
| 08/24/2026 | 15:00:00 | 236 | 95 | 14:36:03 | 93 | 14:25:02 | 94 | 40 | 14:51:00 | 34 | 14:59:05 | 34.06 | 0 | |||||||
| 08/24/2026 | 16:00:00 | 236 | 94 | 15:23:01 | 93 | 15:47:04 | 93 | 40 | 15:12:05 | 33 | 15:00:03 | 37.59 | 0 | |||||||
| 08/24/2026 | 17:00:00 | 236 | 93 | 16:00:01 | 92 | 16:45:01 | 92 | 41 | 16:54:00 | 37 | 16:00:01 | 40.02 | 0 | |||||||
| 08/24/2026 | 18:00:00 | 236 | 93 | 17:09:05 | 89 | 17:59:00 | 89 | 48 | 17:22:04 | 38 | 17:10:00 | 45.92 | 0 | |||||||
| 08/24/2026 | 19:00:00 | 236 | 89 | 18:00:01 | 81 | 18:59:05 | 81 | 70 | 18:58:00 | 46 | 18:00:01 | 68.84 | 0 | |||||||
| 08/24/2026 | 20:00:00 | 236 | 81 | 19:00:01 | 76 | 19:59:04 | 76 | 80 | 19:59:01 | 68 | 19:02:00 | 80 | 0 | |||||||
| 08/24/2026 | 21:00:00 | 236 | 76 | 20:00:01 | 74 | 20:56:00 | 74 | 84 | 20:05:02 | 80 | 20:00:01 | 83.5 | 0 | |||||||
| 08/24/2026 | 22:00:00 | 236 | 74 | 21:00:05 | 73 | 21:44:05 | 73 | 86 | 21:39:05 | 83 | 21:08:05 | 85.2 | 0 | |||||||
| 08/24/2026 | 23:00:00 | 236 | 73 | 22:01:01 | 71 | 22:36:02 | 71 | 88 | 22:21:05 | 85 | 22:01:02 | 87.1 | 0 | |||||||
| 08/25/2026 | 0:00:00 | 237 | 72 | 23:08:03 | 70 | 23:57:03 | 70 | 89 | 23:31:05 | 83 | 23:07:04 | 86.8 | 0 | |||||||
| 08/25/2026 | 1:00:00 | 237 | 70 | 0:01:00 | 69 | 0:23:05 | 69 | 90 | 0:20:01 | 86 | 0:07:05 | 90.4 | 0 | |||||||
| 08/25/2026 | 2:00:00 | 237 | 69 | 1:59:02 | 68 | 1:29:01 | 69 | 92 | 1:09:05 | 88 | 2:00:00 | 88.3 | 0 | |||||||
| 08/25/2026 | 3:00:00 | 237 | 70 | 2:01:00 | 68 | 2:47:05 | 68 | 93 | 2:46:00 | 88 | 2:00:03 | 91.9 | 0 | |||||||
| 08/25/2026 | 4:00:00 | 237 | 69 | 3:58:05 | 68 | 3:41:04 | 69 | 95 | 3:45:01 | 92 | 3:01:02 | 92.8 | 0 | |||||||
| 08/25/2026 | 5:00:00 | 237 | 69 | 4:37:04 | 69 | 4:00:03 | 69 | 93 | 4:58:02 | 91 | 4:32:03 | 92.8 | 0 | |||||||
| 08/25/2026 | 6:00:00 | 237 | 70 | 6:00:00 | 69 | 5:00:01 | 70 | 94 | 5:48:04 | 91 | 5:32:05 | 92.1 | 0.02 | |||||||
| 08/25/2026 | 7:00:00 | 237 | 72 | 6:59:01 | 70 | 6:23:01 | 72 | 94 | 6:22:04 | 89 | 6:56:04 | 90.6 | 0 | |||||||
| 08/25/2026 | 8:00:00 | 237 | 77 | 8:00:00 | 72 | 7:00:02 | 77 | 92 | 7:00:05 | 82 | 7:58:00 | 83.3 | 0 | |||||||
| 08/25/2026 | 9:00:00 | 237 | 84 | 8:55:01 | 77 | 8:00:01 | 83 | 84 | 8:01:00 | 57 | 8:53:04 | 59.39 | 0.01 | |||||||
| 08/25/2026 | 10:00:00 | 237 | 88 | 9:59:04 | 83 | 9:00:02 | 88 | 64 | 9:00:04 | 51 | 9:59:05 | 51.3 | 0 | |||||||
| 08/25/2026 | 11:00:00 | 237 | 92 | 10:53:04 | 88 | 10:00:02 | 91 | 58 | 10:02:05 | 41 | 10:42:00 | 45.14 | 0 | |||||||
| 08/25/2026 | 12:00:00 | 237 | 95 | 11:53:03 | 91 | 11:01:00 | 93 | 51 | 11:36:02 | 43 | 11:50:05 | 45.76 | 0 | |||||||
| 08/25/2026 | 13:00:00 | 237 | 96 | 12:39:01 | 93 | 12:00:01 | 94 | 49 | 12:15:05 | 40 | 12:39:03 | 42.86 | 0 | |||||||
| 08/25/2026 | 14:00:00 | 237 | 96 | 13:54:04 | 93 | 14:00:00 | 93 | 51 | 13:21:02 | 42 | 13:06:02 | 49.07 | 0 | |||||||
| 08/25/2026 | 15:00:00 | 237 | 93 | 14:00:01 | 89 | 14:28:01 | 92 | 61 | 14:55:04 | 46 | 14:00:02 | 57.83 | 0 | |||||||
| 08/25/2026 | 16:00:00 | 237 | 92 | 15:02:05 | 89 | 15:28:00 | 90 | 61 | 15:28:04 | 54 | 15:11:04 | 57.9 | 0 | |||||||
| 08/25/2026 | 17:00:00 | 237 | 91 | 16:55:04 | 88 | 16:28:04 | 91 | 63 | 16:21:03 | 55 | 16:56:02 | 55.76 | 0 | |||||||
| 08/25/2026 | 18:00:00 | 237 | 91 | 17:27:01 | 88 | 17:59:03 | 89 | 67 | 17:40:00 | 55 | 17:22:05 | 64.8 | 0 | |||||||
| 08/25/2026 | 19:00:00 | 237 | 89 | 18:00:02 | 82 | 19:00:00 | 82 | 83 | 19:00:00 | 62 | 18:01:03 | 82.6 | 0 | |||||||
| 08/25/2026 | 20:00:00 | 237 | 82 | 19:00:02 | 79 | 19:49:01 | 79 | 88 | 19:59:03 | 82 | 19:00:05 | 88.3 | 0 | |||||||
| 08/25/2026 | 21:00:00 | 237 | 79 | 20:00:03 | 77 | 20:59:05 | 78 | 90 | 20:59:01 | 88 | 20:04:00 | 90.2 | 0 | |||||||
| 08/25/2026 | 22:00:00 | 237 | 77 | 21:00:01 | 76 | 21:39:04 | 76 | 94 | 22:00:00 | 90 | 21:00:01 | 93.8 | 0 | |||||||
| 08/25/2026 | 23:00:00 | 237 | 76 | 22:05:05 | 75 | 22:47:04 | 75 | 95 | 22:59:05 | 93 | 22:09:02 | 95.2 | 0 | |||||||
| 08/26/2026 | 0:00:00 | 238 | 75 | 23:00:01 | 74 | 23:59:01 | 74 | 96 | 23:54:02 | 94 | 23:13:00 | 96.3 | 0 | |||||||
| 08/26/2026 | 1:00:00 | 238 | 75 | 0:43:00 | 74 | 0:06:05 | 75 | 98 | 0:25:01 | 96 | 0:44:03 | 96.5 | 0 | |||||||
| 08/26/2026 | 2:00:00 | 238 | 75 | 1:21:05 | 74 | 1:58:05 | 74 | 97 | 1:00:02 | 95 | 1:23:04 | 95.3 | 0 | |||||||
| 08/26/2026 | 3:00:00 | 238 | 74 | 2:00:01 | 73 | 2:59:04 | 73 | 96 | 2:59:03 | 95 | 2:00:05 | 96.3 | 0 | |||||||
| 08/26/2026 | 4:00:00 | 238 | 73 | 3:06:05 | 72 | 3:34:02 | 73 | 98 | 3:42:04 | 96 | 3:15:01 | 97.1 | 0 | |||||||
| 08/26/2026 | 5:00:00 | 238 | 73 | 4:00:01 | 72 | 5:00:00 | 72 | 98 | 4:30:00 | 96 | 4:05:03 | 97.5 | 0 | |||||||
| 08/26/2026 | 6:00:00 | 238 | 73 | 6:00:00 | 72 | 5:25:05 | 73 | 98 | 5:44:01 | 97 | 5:59:04 | 97 | 0 | |||||||
| 08/26/2026 | 7:00:00 | 238 | 82 | 7:00:00 | 73 | 6:00:01 | 82 | 97 | 6:01:04 | 77 | 7:00:00 | 77.34 | 0 | |||||||
| 08/26/2026 | 8:00:00 | 238 | 85 | 7:56:04 | 81 | 7:16:00 | 85 | 81 | 7:12:03 | 71 | 7:53:02 | 75.07 | 0 | |||||||
| 08/26/2026 | 9:00:00 | 238 | 87 | 8:59:00 | 84 | 8:03:01 | 87 | 78 | 8:03:03 | 69 | 8:55:04 | 71.67 | 0 | |||||||
| 08/26/2026 | 10:00:00 | 238 | 89 | 9:27:01 | 87 | 9:00:03 | 88 | 73 | 9:01:03 | 60 | 9:58:01 | 61.9 | 0 | |||||||
| 08/26/2026 | 11:00:00 | 238 | 93 | 10:56:00 | 88 | 10:00:01 | 93 | 64 | 10:13:05 | 51 | 10:59:00 | 52.92 | 0 | |||||||
| 08/26/2026 | 12:00:00 | 238 | 93 | 11:00:05 | 91 | 11:40:05 | 92 | 60 | 11:46:03 | 51 | 11:03:04 | 53.72 | 0 | |||||||
| 08/26/2026 | 13:00:00 | 238 | 93 | 12:34:01 | 91 | 12:18:00 | 92 | 60 | 12:24:02 | 51 | 12:01:00 | 53.04 | 0 | |||||||
| 08/26/2026 | 14:00:00 | 238 | 95 | 13:06:00 | 87 | 14:00:00 | 87 | 64 | 13:59:05 | 49 | 13:21:03 | 62.39 | 0 | |||||||
| 08/26/2026 | 15:00:00 | 238 | 87 | 14:00:01 | 73 | 14:34:02 | 73 | 98 | 14:55:02 | 60 | 14:00:05 | 97.5 | 1.24 | |||||||
| 08/26/2026 | 16:00:00 | 238 | 76 | 15:59:00 | 73 | 15:13:03 | 76 | 98 | 15:00:05 | 94 | 15:58:00 | 94 | 0 | |||||||
| 08/26/2026 | 17:00:00 | 238 | 78 | 16:53:03 | 76 | 16:00:01 | 78 | 94 | 16:01:02 | 86 | 16:51:01 | 90.7 | 0 | |||||||
| 08/26/2026 | 18:00:00 | 238 | 78 | 17:00:05 | 75 | 17:59:05 | 75 | 94 | 18:00:00 | 88 | 17:01:05 | 94.2 | 0 | |||||||
| 08/26/2026 | 19:00:00 | 238 | 75 | 18:00:02 | 74 | 18:51:03 | 74 | 95 | 18:23:00 | 93 | 18:34:03 | 93.2 | 0 | |||||||
| 08/26/2026 | 20:00:00 | 238 | 74 | 19:46:05 | 73 | 19:28:01 | 73 | 97 | 19:31:05 | 93 | 19:00:04 | 94.9 | 0 | |||||||
| 08/26/2026 | 21:00:00 | 238 | 73 | 20:00:02 | 73 | 20:37:04 | 73 | 98 | 20:41:01 | 95 | 20:00:01 | 95.9 | 0 | |||||||
| 08/26/2026 | 22:00:00 | 238 | 73 | 21:00:03 | 73 | 21:58:03 | 73 | 98 | 21:59:04 | 96 | 21:18:05 | 97.9 | 0 | |||||||
| 08/26/2026 | 23:00:00 | 238 | 73 | 22:22:04 | 72 | 22:56:04 | 72 | 99 | 22:59:03 | 98 | 22:09:03 | 99 | 0 | |||||||
| 08/27/2026 | 0:00:00 | 239 | 73 | 23:19:05 | 72 | 23:59:03 | 72 | 100 | 23:19:05 | 99 | 23:00:02 | 99.3 | 0 | |||||||
| 08/27/2026 | 1:00:00 | 239 | 72 | 0:02:02 | 72 | 0:35:04 | 72 | 100 | 0:58:00 | 99 | 0:00:01 | 99.6 | 0 | |||||||
| 08/27/2026 | 2:00:00 | 239 | 72 | 1:35:01 | 72 | 1:06:01 | 72 | 100 | 2:00:00 | 99 | 1:05:02 | 99.8 | 0 | |||||||
| 08/27/2026 | 3:00:00 | 239 | 72 | 2:54:00 | 72 | 2:28:00 | 72 | 100 | 2:20:03 | 100 | 2:58:05 | 99.5 | 0 | |||||||
| 08/27/2026 | 4:00:00 | 239 | 72 | 3:17:05 | 72 | 3:59:05 | 72 | 100 | 3:03:04 | 99 | 4:00:00 | 98.7 | 0 | |||||||
| 08/27/2026 | 5:00:00 | 239 | 72 | 4:05:03 | 71 | 4:39:04 | 72 | 100 | 4:47:04 | 99 | 4:00:04 | 100 | 0 | |||||||
| 08/27/2026 | 6:00:00 | 239 | 72 | 5:58:01 | 72 | 5:01:01 | 72 | 100 | 5:01:04 | 99 | 6:00:00 | 98.5 | 0 | |||||||
| 08/27/2026 | 7:00:00 | 239 | 73 | 6:57:02 | 72 | 6:01:01 | 73 | 99 | 6:11:03 | 98 | 6:40:05 | 98.3 | 0 | |||||||
| 08/27/2026 | 8:00:00 | 239 | 74 | 7:58:05 | 73 | 7:00:02 | 74 | 99 | 7:28:01 | 96 | 7:51:05 | 96.6 | 0 | |||||||
| 08/27/2026 | 9:00:00 | 239 | 77 | 8:48:05 | 74 | 8:00:03 | 77 | 97 | 8:01:02 | 89 | 8:45:02 | 91 | 0 | |||||||
| 08/27/2026 | 10:00:00 | 239 | 79 | 9:47:00 | 76 | 9:00:03 | 79 | 93 | 9:01:03 | 81 | 9:59:03 | 84.2 | 0 | |||||||
| 08/27/2026 | 11:00:00 | 239 | 84 | 11:00:00 | 79 | 10:00:02 | 84 | 86 | 10:00:03 | 71 | 10:58:05 | 72.16 | 0 | |||||||
| 08/27/2026 | 12:00:00 | 239 | 86 | 11:54:05 | 83 | 11:15:00 | 86 | 76 | 11:16:05 | 64 | 11:57:03 | 64.84 | 0 | |||||||
| 08/27/2026 | 13:00:00 | 239 | 88 | 12:53:02 | 85 | 12:32:02 | 87 | 72 | 12:43:01 | 61 | 12:54:00 | 66.04 | 0 | |||||||
| 08/27/2026 | 14:00:00 | 239 | 90 | 13:48:02 | 86 | 13:02:04 | 89 | 69 | 13:23:03 | 57 | 13:40:02 | 60.02 | 0 | |||||||
| 08/27/2026 | 15:00:00 | 239 | 90 | 14:38:02 | 87 | 14:16:03 | 90 | 66 | 14:01:03 | 55 | 14:50:01 | 58.28 | 0 | |||||||
| 08/27/2026 | 16:00:00 | 239 | 92 | 15:15:02 | 89 | 15:20:05 | 90 | 63 | 15:22:01 | 55 | 15:17:02 | 57.74 | 0 | |||||||
| 08/27/2026 | 17:00:00 | 239 | 90 | 16:28:03 | 89 | 16:53:04 | 89 | 63 | 16:38:01 | 56 | 16:29:04 | 60 | 0 | |||||||
| 08/27/2026 | 18:00:00 | 239 | 89 | 17:04:00 | 85 | 18:00:00 | 85 | 74 | 18:00:00 | 58 | 17:01:05 | 74.16 | 0 | |||||||
| 08/27/2026 | 19:00:00 | 239 | 85 | 18:00:02 | 81 | 18:57:01 | 81 | 89 | 18:40:04 | 73 | 18:00:04 | 86.6 | 0 | |||||||
| 08/27/2026 | 20:00:00 | 239 | 82 | 19:19:05 | 79 | 19:48:02 | 80 | 88 | 19:01:02 | 74 | 19:18:01 | 81.9 | 0 | |||||||
| 08/27/2026 | 21:00:00 | 239 | 80 | 20:00:01 | 76 | 20:56:03 | 76 | 93 | 20:44:04 | 83 | 20:00:01 | 90.5 | 0 | |||||||
| 08/27/2026 | 22:00:00 | 239 | 76 | 21:02:05 | 75 | 21:56:04 | 75 | 95 | 21:59:01 | 90 | 21:01:03 | 94.3 | 0 | |||||||
| 08/27/2026 | 23:00:00 | 239 | 75 | 22:00:03 | 74 | 22:56:00 | 74 | 96 | 23:00:00 | 94 | 22:08:01 | 96.3 | 0 | |||||||
| 08/28/2026 | 0:00:00 | 240 | 74 | 23:00:05 | 72 | 0:00:00 | 72 | 98 | 23:59:03 | 96 | 23:00:01 | 97.6 | 0 | |||||||
| 08/28/2026 | 1:00:00 | 240 | 72 | 0:00:02 | 72 | 0:22:02 | 72 | 98 | 0:38:04 | 98 | 0:00:05 | 98.2 | 0 | |||||||
| 08/28/2026 | 2:00:00 | 240 | 72 | 1:00:02 | 71 | 1:36:04 | 72 | 99 | 1:50:02 | 98 | 1:01:00 | 98.9 | 0 | |||||||
| 08/28/2026 | 3:00:00 | 240 | 72 | 2:19:02 | 71 | 2:57:01 | 71 | 99 | 2:00:03 | 98 | 2:31:01 | 98.8 | 0 | |||||||
| 08/28/2026 | 4:00:00 | 240 | 71 | 3:00:03 | 71 | 3:43:03 | 71 | 99 | 3:59:05 | 99 | 3:02:01 | 99.4 | 0 | |||||||
| 08/28/2026 | 5:00:00 | 240 | 71 | 4:01:01 | 70 | 4:59:02 | 70 | 100 | 4:01:02 | 99 | 4:23:04 | 99.2 | 0 | |||||||
| 08/28/2026 | 6:00:00 | 240 | 71 | 6:00:00 | 70 | 5:11:05 | 71 | 100 | 5:34:00 | 99 | 5:59:04 | 98.9 | 0 | |||||||
| 08/28/2026 | 7:00:00 | 240 | 77 | 7:00:00 | 71 | 6:00:01 | 77 | 99 | 6:00:02 | 85 | 6:59:01 | 85.4 | 0 | |||||||
| 08/28/2026 | 8:00:00 | 240 | 80 | 7:59:00 | 76 | 7:00:01 | 80 | 86 | 7:00:03 | 72 | 7:59:05 | 71.93 | 0 | |||||||
| 08/28/2026 | 9:00:00 | 240 | 85 | 8:58:05 | 80 | 8:00:04 | 85 | 75 | 8:07:00 | 61 | 8:58:04 | 62.17 | 0 | |||||||
| 08/28/2026 | 10:00:00 | 240 | 87 | 9:59:03 | 84 | 9:00:01 | 87 | 69 | 9:03:00 | 51 | 9:55:01 | 51.48 | 0 | |||||||
| 08/28/2026 | 11:00:00 | 240 | 89 | 10:55:04 | 87 | 10:00:05 | 89 | 57 | 10:01:01 | 44 | 10:56:03 | 46.63 | 0 | |||||||
| 08/28/2026 | 12:00:00 | 240 | 91 | 11:42:05 | 89 | 11:35:03 | 91 | 50 | 11:00:05 | 36 | 11:47:01 | 42.95 | 0 | |||||||
| 08/28/2026 | 13:00:00 | 240 | 91 | 12:45:01 | 90 | 12:20:01 | 91 | 46 | 12:48:00 | 37 | 12:50:00 | 39.47 | 0 | |||||||
| 08/28/2026 | 14:00:00 | 240 | 92 | 13:24:02 | 91 | 13:28:04 | 91 | 44 | 13:04:04 | 37 | 13:48:01 | 39.52 | 0 | |||||||
| 08/28/2026 | 15:00:00 | 240 | 93 | 14:59:05 | 91 | 14:00:01 | 93 | 42 | 14:05:04 | 36 | 14:14:04 | 36.2 | 0 | |||||||
| 08/28/2026 | 16:00:00 | 240 | 93 | 15:00:01 | 91 | 15:47:01 | 91 | 42 | 15:01:05 | 36 | 15:54:04 | 37.9 | 0 | |||||||
| 08/28/2026 | 17:00:00 | 240 | 91 | 16:01:00 | 90 | 16:59:05 | 90 | 42 | 16:13:02 | 37 | 16:33:01 | 39.18 | 0 | |||||||
| 08/28/2026 | 18:00:00 | 240 | 90 | 17:00:04 | 86 | 17:59:02 | 86 | 47 | 17:53:01 | 38 | 17:00:04 | 44.69 | 0 | |||||||
| 08/28/2026 | 19:00:00 | 240 | 86 | 18:00:01 | 75 | 19:00:00 | 75 | 84 | 19:00:00 | 45 | 18:02:02 | 83.8 | 0 | |||||||
| 08/28/2026 | 20:00:00 | 240 | 75 | 19:00:01 | 72 | 19:59:04 | 72 | 90 | 20:00:00 | 82 | 19:15:02 | 90 | 0 | |||||||
| 08/28/2026 | 21:00:00 | 240 | 72 | 20:00:04 | 70 | 20:58:05 | 70 | 92 | 20:44:05 | 88 | 20:28:03 | 91.3 | 0 | |||||||
| 08/28/2026 | 22:00:00 | 240 | 70 | 21:00:04 | 70 | 21:34:02 | 70 | 94 | 21:33:04 | 91 | 21:01:05 | 92.9 | 0 | |||||||
| 08/28/2026 | 23:00:00 | 240 | 70 | 22:00:01 | 69 | 22:41:03 | 69 | 95 | 22:28:05 | 93 | 22:52:01 | 93.6 | 0 | |||||||
| 08/29/2026 | 0:00:00 | 241 | 69 | 23:00:02 | 68 | 23:58:01 | 68 | 95 | 23:54:03 | 93 | 23:33:01 | 94.8 | 0 | |||||||
| 08/29/2026 | 1:00:00 | 241 | 68 | 0:01:04 | 67 | 1:00:00 | 67 | 97 | 0:59:02 | 94 | 0:04:03 | 96.9 | 0 | |||||||
| 08/29/2026 | 2:00:00 | 241 | 67 | 1:00:01 | 67 | 1:42:00 | 67 | 97 | 1:35:04 | 97 | 1:52:02 | 97 | 0 | |||||||
| 08/29/2026 | 3:00:00 | 241 | 67 | 2:00:01 | 66 | 2:59:03 | 66 | 98 | 2:36:04 | 97 | 2:00:01 | 97.5 | 0 | |||||||
| 08/29/2026 | 4:00:00 | 241 | 66 | 3:17:04 | 66 | 3:57:02 | 66 | 98 | 3:09:01 | 97 | 3:56:03 | 97.7 | 0 | |||||||
| 08/29/2026 | 5:00:00 | 241 | 66 | 4:30:04 | 65 | 4:55:00 | 66 | 98 | 5:00:00 | 97 | 4:34:02 | 98.1 | 0 | |||||||
| 08/29/2026 | 6:00:00 | 241 | 66 | 5:59:05 | 65 | 5:45:02 | 66 | 98 | 5:07:04 | 97 | 5:33:00 | 97.1 | 0 | |||||||
| 08/29/2026 | 7:00:00 | 241 | 72 | 7:00:00 | 66 | 6:00:01 | 72 | 97 | 6:01:04 | 86 | 7:00:00 | 86.2 | 0 | |||||||
| 08/29/2026 | 8:00:00 | 241 | 80 | 7:59:05 | 72 | 7:00:01 | 80 | 87 | 7:02:03 | 67 | 7:59:04 | 67.6 | 0 | |||||||
| 08/29/2026 | 9:00:00 | 241 | 85 | 8:47:02 | 80 | 8:02:01 | 84 | 70 | 8:00:04 | 59 | 8:48:04 | 60.4 | 0 | |||||||
| 08/29/2026 | 10:00:00 | 241 | 88 | 9:53:02 | 84 | 9:00:01 | 88 | 63 | 9:30:00 | 52 | 9:58:01 | 53.93 | 0 | |||||||
| 08/29/2026 | 11:00:00 | 241 | 92 | 10:58:04 | 88 | 10:03:01 | 91 | 57 | 10:14:04 | 43 | 10:59:03 | 43.2 | 0 | |||||||
| 08/29/2026 | 12:00:00 | 241 | 93 | 11:50:02 | 91 | 11:07:05 | 93 | 47 | 11:02:02 | 38 | 11:32:01 | 42.06 | 0 | |||||||
| 08/29/2026 | 13:00:00 | 241 | 93 | 12:02:02 | 91 | 12:12:05 | 92 | 47 | 12:02:02 | 35 | 12:27:00 | 35.28 | 0 | |||||||
| 08/29/2026 | 14:00:00 | 241 | 95 | 13:32:00 | 92 | 13:12:02 | 95 | 45 | 13:08:03 | 31 | 13:56:01 | 36.79 | 0 | |||||||
| 08/29/2026 | 15:00:00 | 241 | 95 | 14:58:04 | 92 | 14:36:02 | 95 | 44 | 14:11:01 | 28 | 15:00:00 | 27.89 | 0 | |||||||
| 08/29/2026 | 16:00:00 | 241 | 96 | 15:19:00 | 93 | 15:11:04 | 95 | 40 | 15:09:02 | 28 | 15:55:00 | 30.32 | 0 | |||||||
| 08/29/2026 | 17:00:00 | 241 | 95 | 16:23:03 | 92 | 16:53:05 | 92 | 46 | 16:51:05 | 30 | 16:00:01 | 37.06 | 0 | |||||||
| 08/29/2026 | 18:00:00 | 241 | 93 | 17:02:04 | 86 | 18:00:00 | 86 | 65 | 17:59:05 | 34 | 17:02:00 | 65.18 | 0 | |||||||
| 08/29/2026 | 19:00:00 | 241 | 85 | 18:00:01 | 77 | 18:59:04 | 77 | 83 | 18:54:03 | 58 | 18:07:01 | 81.7 | 0 | |||||||
| 08/29/2026 | 20:00:00 | 241 | 77 | 19:00:01 | 74 | 19:44:01 | 75 | 90 | 19:50:03 | 79 | 19:15:01 | 89.6 | 0 | |||||||
| 08/29/2026 | 21:00:00 | 241 | 75 | 20:22:01 | 73 | 20:59:02 | 73 | 90 | 20:08:03 | 84 | 20:20:04 | 89.1 | 0 | |||||||
| 08/29/2026 | 22:00:00 | 241 | 74 | 21:16:04 | 72 | 21:32:01 | 73 | 93 | 21:37:04 | 88 | 21:20:03 | 92.2 | 0 | |||||||
| 08/29/2026 | 23:00:00 | 241 | 74 | 22:09:05 | 72 | 22:58:03 | 72 | 93 | 22:59:03 | 91 | 22:06:03 | 92.9 | 0 | |||||||
| 08/30/2026 | 0:00:00 | 242 | 72 | 23:00:01 | 72 | 23:13:02 | 72 | 94 | 23:45:03 | 93 | 23:02:04 | 93.5 | 0 | |||||||
| 08/30/2026 | 1:00:00 | 242 | 72 | 0:20:02 | 72 | 0:53:03 | 72 | 95 | 0:55:04 | 93 | 0:00:05 | 94.5 | 0 | |||||||
| 08/30/2026 | 2:00:00 | 242 | 72 | 1:00:01 | 71 | 2:00:00 | 71 | 96 | 1:52:05 | 94 | 1:03:05 | 95.9 | 0 | |||||||
| 08/30/2026 | 3:00:00 | 242 | 71 | 2:08:05 | 70 | 2:37:03 | 70 | 98 | 2:56:04 | 96 | 2:00:01 | 97.6 | 0 | |||||||
| 08/30/2026 | 4:00:00 | 242 | 71 | 3:59:04 | 70 | 3:00:01 | 71 | 98 | 3:59:05 | 97 | 3:24:05 | 98.4 | 0 | |||||||
| 08/30/2026 | 5:00:00 | 242 | 71 | 4:42:02 | 70 | 4:00:01 | 71 | 98 | 4:09:00 | 98 | 4:31:03 | 98 | 0 | |||||||
| 08/30/2026 | 6:00:00 | 242 | 72 | 6:00:00 | 70 | 5:12:04 | 72 | 99 | 5:47:03 | 97 | 5:11:01 | 98.2 | 0 | |||||||
| 08/30/2026 | 7:00:00 | 242 | 77 | 7:00:00 | 72 | 6:00:01 | 77 | 98 | 6:00:01 | 91 | 6:57:05 | 91.6 | 0 | |||||||
| 08/30/2026 | 8:00:00 | 242 | 82 | 7:58:01 | 77 | 7:00:01 | 82 | 93 | 7:00:05 | 82 | 7:58:05 | 83.9 | 0 | |||||||
| 08/30/2026 | 9:00:00 | 242 | 85 | 8:43:02 | 82 | 8:00:01 | 84 | 85 | 8:00:05 | 72 | 8:52:01 | 75.7 | 0 | |||||||
| 08/30/2026 | 10:00:00 | 242 | 88 | 9:59:05 | 84 | 9:05:00 | 88 | 77 | 9:06:05 | 66 | 10:00:00 | 66.23 | 0 | |||||||
| 08/30/2026 | 11:00:00 | 242 | 91 | 10:58:00 | 88 | 10:06:00 | 90 | 70 | 10:06:03 | 58 | 10:55:05 | 61.21 | 0 | |||||||
| 08/30/2026 | 12:00:00 | 242 | 93 | 11:49:05 | 90 | 11:02:05 | 91 | 65 | 11:05:01 | 55 | 11:41:03 | 58.7 | 0 | |||||||
| 08/30/2026 | 13:00:00 | 242 | 93 | 13:00:00 | 90 | 12:09:05 | 93 | 61 | 12:01:00 | 51 | 12:59:02 | 52.22 | 0 | |||||||
| 08/30/2026 | 14:00:00 | 242 | 94 | 13:48:04 | 91 | 13:12:05 | 92 | 60 | 13:13:02 | 48 | 13:23:04 | 53.43 | 0 | |||||||
| 08/30/2026 | 15:00:00 | 242 | 94 | 14:40:01 | 92 | 14:04:03 | 93 | 57 | 14:14:01 | 48 | 14:38:00 | 52.83 | 0 | |||||||
| 08/30/2026 | 16:00:00 | 242 | 93 | 15:37:01 | 92 | 15:57:05 | 92 | 56 | 15:45:02 | 48 | 15:14:03 | 50.74 | 0 | |||||||
| 08/30/2026 | 17:00:00 | 242 | 93 | 16:03:02 | 91 | 16:59:03 | 91 | 57 | 16:54:02 | 50 | 16:01:04 | 54.83 | 0 | |||||||
| 08/30/2026 | 18:00:00 | 242 | 91 | 17:00:04 | 86 | 18:00:00 | 86 | 67 | 18:00:00 | 53 | 17:00:02 | 66.79 | 0 | |||||||
| 08/30/2026 | 19:00:00 | 242 | 86 | 18:00:01 | 82 | 19:00:00 | 82 | 80 | 18:59:05 | 66 | 18:03:01 | 79.35 | 0 | |||||||
| 08/30/2026 | 20:00:00 | 242 | 82 | 19:00:01 | 79 | 19:59:03 | 79 | 89 | 19:57:05 | 79 | 19:01:03 | 87 | 0 | |||||||
| 08/30/2026 | 21:00:00 | 242 | 79 | 20:01:02 | 77 | 20:20:00 | 77 | 92 | 20:34:01 | 87 | 20:04:00 | 90.8 | 0 | |||||||
| 08/30/2026 | 22:00:00 | 242 | 77 | 21:02:00 | 76 | 21:59:00 | 76 | 93 | 21:38:04 | 90 | 21:12:04 | 92.3 | 0 | |||||||
| 08/30/2026 | 23:00:00 | 242 | 76 | 22:00:01 | 74 | 22:59:02 | 74 | 94 | 22:59:04 | 92 | 22:00:01 | 94.4 | 0 | |||||||
| 08/31/2026 | 0:00:00 | 243 | 75 | 23:00:03 | 74 | 23:55:05 | 74 | 96 | 0:00:00 | 94 | 23:00:01 | 96.1 | 0 | |||||||
| 08/31/2026 | 1:00:00 | 243 | 74 | 0:00:01 | 73 | 0:59:02 | 73 | 97 | 0:13:05 | 96 | 0:27:03 | 96.3 | 0 | |||||||
| 08/31/2026 | 2:00:00 | 243 | 73 | 1:00:03 | 72 | 1:56:03 | 73 | 98 | 1:58:03 | 96 | 1:01:03 | 97.5 | 0 | |||||||
| 08/31/2026 | 3:00:00 | 243 | 73 | 2:12:01 | 72 | 2:59:05 | 72 | 98 | 2:42:04 | 96 | 2:15:04 | 97.5 | 0 | |||||||
| 08/31/2026 | 4:00:00 | 243 | 72 | 3:09:02 | 71 | 3:57:03 | 71 | 99 | 3:28:01 | 98 | 3:01:00 | 98.2 | 0 | |||||||
| 08/31/2026 | 5:00:00 | 243 | 71 | 4:00:05 | 71 | 5:00:00 | 71 | 99 | 4:24:05 | 98 | 4:03:01 | 98.5 | 0 | |||||||
| 08/31/2026 | 6:00:00 | 243 | 72 | 5:59:00 | 71 | 5:19:03 | 72 | 99 | 5:43:01 | 98 | 6:00:00 | 98 | 0 | |||||||
| 08/31/2026 | 7:00:00 | 243 | 78 | 7:00:00 | 72 | 6:00:02 | 78 | 98 | 6:00:03 | 89 | 6:59:01 | 89.3 | 0 | |||||||
| 08/31/2026 | 8:00:00 | 243 | 82 | 8:00:00 | 78 | 7:00:01 | 82 | 90 | 7:02:02 | 79 | 7:59:03 | 80.1 | 0 | |||||||
| 08/31/2026 | 9:00:00 | 243 | 88 | 8:55:04 | 82 | 8:03:00 | 87 | 81 | 8:00:05 | 65 | 8:59:02 | 66.5 | 0 | |||||||
| Average | 80.69 | 78.15 | 79.47 | 81.37 | 73.66 | 77.25 | 0.01 | 0 | 0 | 0 | 0 | 0 | 0 | |||||||
| Total | 1.27 |